sensor_id;sensor_type;location;lat;lon;timestamp;temperature;humidity
53422;DHT22;39319;52.944;5.928;2023-04-25T00:01:21;9.70;94.60
53422;DHT22;39319;52.944;5.928;2023-04-25T00:03:49;9.30;94.50
53422;DHT22;39319;52.944;5.928;2023-04-25T00:06:15;9.50;94.80
53422;DHT22;39319;52.944;5.928;2023-04-25T00:08:43;9.60;94.70
53422;DHT22;39319;52.944;5.928;2023-04-25T00:11:08;9.40;94.60
53422;DHT22;39319;52.944;5.928;2023-04-25T00:13:34;9.50;94.70
53422;DHT22;39319;52.944;5.928;2023-04-25T00:16:00;9.60;94.90
53422;DHT22;39319;52.944;5.928;2023-04-25T00:18:26;9.30;94.80
53422;DHT22;39319;52.944;5.928;2023-04-25T00:20:54;9.50;94.70
53422;DHT22;39319;52.944;5.928;2023-04-25T00:23:21;9.40;95.00
53422;DHT22;39319;52.944;5.928;2023-04-25T00:25:48;9.60;95.00
53422;DHT22;39319;52.944;5.928;2023-04-25T00:28:15;10.00;95.20
53422;DHT22;39319;52.944;5.928;2023-04-25T00:30:41;9.40;94.70
53422;DHT22;39319;52.944;5.928;2023-04-25T00:33:08;9.50;95.10
53422;DHT22;39319;52.944;5.928;2023-04-25T00:35:34;9.50;94.90
53422;DHT22;39319;52.944;5.928;2023-04-25T00:38:00;9.50;94.80
53422;DHT22;39319;52.944;5.928;2023-04-25T00:40:26;9.60;94.60
53422;DHT22;39319;52.944;5.928;2023-04-25T00:42:52;9.50;94.80
53422;DHT22;39319;52.944;5.928;2023-04-25T00:45:19;9.40;94.70
53422;DHT22;39319;52.944;5.928;2023-04-25T00:47:47;9.60;94.70
53422;DHT22;39319;52.944;5.928;2023-04-25T00:50:13;9.50;94.60
53422;DHT22;39319;52.944;5.928;2023-04-25T00:52:41;9.50;94.70
53422;DHT22;39319;52.944;5.928;2023-04-25T00:55:08;9.40;94.50
53422;DHT22;39319;52.944;5.928;2023-04-25T00:57:35;9.50;94.70
53422;DHT22;39319;52.944;5.928;2023-04-25T01:00:01;9.60;94.70
53422;DHT22;39319;52.944;5.928;2023-04-25T01:02:28;9.60;94.60
53422;DHT22;39319;52.944;5.928;2023-04-25T01:04:54;9.60;94.80
53422;DHT22;39319;52.944;5.928;2023-04-25T01:07:20;9.60;94.40
53422;DHT22;39319;52.944;5.928;2023-04-25T01:09:46;9.50;94.50
53422;DHT22;39319;52.944;5.928;2023-04-25T01:12:14;9.50;94.30
53422;DHT22;39319;52.944;5.928;2023-04-25T01:14:40;9.50;94.10
53422;DHT22;39319;52.944;5.928;2023-04-25T01:17:06;9.80;93.50
53422;DHT22;39319;52.944;5.928;2023-04-25T01:19:33;9.60;93.50
53422;DHT22;39319;52.944;5.928;2023-04-25T01:21:58;9.60;93.20
53422;DHT22;39319;52.944;5.928;2023-04-25T01:24:25;9.70;93.20
53422;DHT22;39319;52.944;5.928;2023-04-25T01:26:51;9.60;93.10
53422;DHT22;39319;52.944;5.928;2023-04-25T01:29:20;9.50;92.70
53422;DHT22;39319;52.944;5.928;2023-04-25T01:31:46;9.60;92.70
53422;DHT22;39319;52.944;5.928;2023-04-25T01:34:12;9.60;92.50
53422;DHT22;39319;52.944;5.928;2023-04-25T01:36:38;9.60;92.50
53422;DHT22;39319;52.944;5.928;2023-04-25T01:39:04;9.50;92.10
53422;DHT22;39319;52.944;5.928;2023-04-25T01:41:33;9.40;92.20
53422;DHT22;39319;52.944;5.928;2023-04-25T01:44:02;9.50;92.40
53422;DHT22;39319;52.944;5.928;2023-04-25T01:46:28;9.50;92.40
53422;DHT22;39319;52.944;5.928;2023-04-25T01:48:54;9.50;92.50
53422;DHT22;39319;52.944;5.928;2023-04-25T01:51:20;9.60;93.20
53422;DHT22;39319;52.944;5.928;2023-04-25T01:53:46;9.60;93.20
53422;DHT22;39319;52.944;5.928;2023-04-25T01:56:11;9.40;93.20
53422;DHT22;39319;52.944;5.928;2023-04-25T01:58:37;9.50;93.30
53422;DHT22;39319;52.944;5.928;2023-04-25T02:01:03;9.50;93.40
53422;DHT22;39319;52.944;5.928;2023-04-25T02:03:30;9.40;93.70
53422;DHT22;39319;52.944;5.928;2023-04-25T02:05:56;9.50;93.40
53422;DHT22;39319;52.944;5.928;2023-04-25T02:08:22;9.50;93.70
53422;DHT22;39319;52.944;5.928;2023-04-25T02:10:48;9.40;94.00
53422;DHT22;39319;52.944;5.928;2023-04-25T02:13:14;9.50;93.60
53422;DHT22;39319;52.944;5.928;2023-04-25T02:15:39;9.50;93.50
53422;DHT22;39319;52.944;5.928;2023-04-25T02:18:06;9.40;93.20
53422;DHT22;39319;52.944;5.928;2023-04-25T02:20:32;9.40;93.60
53422;DHT22;39319;52.944;5.928;2023-04-25T02:22:58;9.10;93.70
53422;DHT22;39319;52.944;5.928;2023-04-25T02:25:24;9.20;93.50
53422;DHT22;39319;52.944;5.928;2023-04-25T02:27:50;9.30;93.20
53422;DHT22;39319;52.944;5.928;2023-04-25T02:30:17;9.30;93.00
53422;DHT22;39319;52.944;5.928;2023-04-25T02:32:42;9.20;92.90
53422;DHT22;39319;52.944;5.928;2023-04-25T02:35:09;9.20;93.30
53422;DHT22;39319;52.944;5.928;2023-04-25T02:37:35;9.20;93.30
53422;DHT22;39319;52.944;5.928;2023-04-25T02:40:02;9.20;93.20
53422;DHT22;39319;52.944;5.928;2023-04-25T02:42:29;9.20;92.40
53422;DHT22;39319;52.944;5.928;2023-04-25T02:44:55;9.20;92.50
53422;DHT22;39319;52.944;5.928;2023-04-25T02:47:21;9.20;92.50
53422;DHT22;39319;52.944;5.928;2023-04-25T02:49:46;9.00;92.30
53422;DHT22;39319;52.944;5.928;2023-04-25T02:52:12;9.00;92.40
53422;DHT22;39319;52.944;5.928;2023-04-25T02:54:39;9.10;92.20
53422;DHT22;39319;52.944;5.928;2023-04-25T02:57:05;9.20;92.40
53422;DHT22;39319;52.944;5.928;2023-04-25T02:59:31;9.20;91.80
53422;DHT22;39319;52.944;5.928;2023-04-25T03:01:57;9.10;91.90
53422;DHT22;39319;52.944;5.928;2023-04-25T03:04:22;9.00;91.70
53422;DHT22;39319;52.944;5.928;2023-04-25T03:06:50;9.10;91.40
53422;DHT22;39319;52.944;5.928;2023-04-25T03:09:16;9.20;91.70
53422;DHT22;39319;52.944;5.928;2023-04-25T03:11:42;9.20;91.20
53422;DHT22;39319;52.944;5.928;2023-04-25T03:14:07;9.20;91.20
53422;DHT22;39319;52.944;5.928;2023-04-25T03:16:33;9.10;91.50
53422;DHT22;39319;52.944;5.928;2023-04-25T03:18:59;9.20;91.40
53422;DHT22;39319;52.944;5.928;2023-04-25T03:21:25;9.20;91.30
53422;DHT22;39319;52.944;5.928;2023-04-25T03:23:52;9.00;91.10
53422;DHT22;39319;52.944;5.928;2023-04-25T03:26:18;9.10;91.30
53422;DHT22;39319;52.944;5.928;2023-04-25T03:28:43;9.00;91.40
53422;DHT22;39319;52.944;5.928;2023-04-25T03:31:09;9.00;91.80
53422;DHT22;39319;52.944;5.928;2023-04-25T03:33:35;9.10;91.90
53422;DHT22;39319;52.944;5.928;2023-04-25T03:36:01;8.90;91.90
53422;DHT22;39319;52.944;5.928;2023-04-25T03:38:26;8.90;92.30
53422;DHT22;39319;52.944;5.928;2023-04-25T03:40:52;9.20;92.40
53422;DHT22;39319;52.944;5.928;2023-04-25T03:43:18;9.00;92.60
53422;DHT22;39319;52.944;5.928;2023-04-25T03:45:44;8.90;92.40
53422;DHT22;39319;52.944;5.928;2023-04-25T03:48:09;8.90;92.70
53422;DHT22;39319;52.944;5.928;2023-04-25T03:50:35;8.80;92.70
53422;DHT22;39319;52.944;5.928;2023-04-25T03:53:01;8.80;92.70
53422;DHT22;39319;52.944;5.928;2023-04-25T03:55:26;8.90;92.80
53422;DHT22;39319;52.944;5.928;2023-04-25T03:57:52;8.70;92.70
53422;DHT22;39319;52.944;5.928;2023-04-25T04:00:18;8.70;93.20
53422;DHT22;39319;52.944;5.928;2023-04-25T04:02:46;8.80;93.30
53422;DHT22;39319;52.944;5.928;2023-04-25T04:05:11;8.60;92.60
53422;DHT22;39319;52.944;5.928;2023-04-25T04:07:37;8.60;92.80
53422;DHT22;39319;52.944;5.928;2023-04-25T04:10:09;8.70;93.20
53422;DHT22;39319;52.944;5.928;2023-04-25T04:12:36;8.70;93.20
53422;DHT22;39319;52.944;5.928;2023-04-25T04:15:06;8.80;93.10
53422;DHT22;39319;52.944;5.928;2023-04-25T04:17:33;8.80;93.20
53422;DHT22;39319;52.944;5.928;2023-04-25T04:19:59;8.70;93.20
53422;DHT22;39319;52.944;5.928;2023-04-25T04:22:25;8.80;93.20
53422;DHT22;39319;52.944;5.928;2023-04-25T04:24:51;8.70;93.30
53422;DHT22;39319;52.944;5.928;2023-04-25T04:27:21;8.70;93.40
53422;DHT22;39319;52.944;5.928;2023-04-25T04:29:48;8.80;93.20
53422;DHT22;39319;52.944;5.928;2023-04-25T04:32:14;8.80;93.40
53422;DHT22;39319;52.944;5.928;2023-04-25T04:34:40;8.80;93.40
53422;DHT22;39319;52.944;5.928;2023-04-25T04:37:06;8.70;93.40
53422;DHT22;39319;52.944;5.928;2023-04-25T04:39:36;8.70;93.50
53422;DHT22;39319;52.944;5.928;2023-04-25T04:42:02;8.80;93.50
53422;DHT22;39319;52.944;5.928;2023-04-25T04:44:29;8.70;93.40
53422;DHT22;39319;52.944;5.928;2023-04-25T04:46:58;8.70;93.60
53422;DHT22;39319;52.944;5.928;2023-04-25T04:49:24;8.70;93.70
53422;DHT22;39319;52.944;5.928;2023-04-25T04:51:50;8.60;93.90
53422;DHT22;39319;52.944;5.928;2023-04-25T04:54:16;8.60;94.10
53422;DHT22;39319;52.944;5.928;2023-04-25T04:56:42;8.60;93.90
53422;DHT22;39319;52.944;5.928;2023-04-25T04:59:08;8.70;93.30
53422;DHT22;39319;52.944;5.928;2023-04-25T05:01:34;8.70;93.70
53422;DHT22;39319;52.944;5.928;2023-04-25T05:04:02;8.70;93.30
53422;DHT22;39319;52.944;5.928;2023-04-25T05:06:29;8.60;93.70
53422;DHT22;39319;52.944;5.928;2023-04-25T05:08:57;8.70;93.80
53422;DHT22;39319;52.944;5.928;2023-04-25T05:11:23;8.50;93.40
53422;DHT22;39319;52.944;5.928;2023-04-25T05:13:52;8.60;93.50
53422;DHT22;39319;52.944;5.928;2023-04-25T05:16:18;8.50;93.40
53422;DHT22;39319;52.944;5.928;2023-04-25T05:18:43;8.60;93.10
53422;DHT22;39319;52.944;5.928;2023-04-25T05:21:09;8.70;92.40
53422;DHT22;39319;52.944;5.928;2023-04-25T05:23:35;8.50;92.10
53422;DHT22;39319;52.944;5.928;2023-04-25T05:26:01;8.50;92.30
53422;DHT22;39319;52.944;5.928;2023-04-25T05:28:27;8.60;92.00
53422;DHT22;39319;52.944;5.928;2023-04-25T05:30:52;8.70;92.10
53422;DHT22;39319;52.944;5.928;2023-04-25T05:33:18;8.70;92.30
53422;DHT22;39319;52.944;5.928;2023-04-25T05:35:44;8.60;92.40
53422;DHT22;39319;52.944;5.928;2023-04-25T05:38:10;8.60;92.20
53422;DHT22;39319;52.944;5.928;2023-04-25T05:40:36;8.80;92.60
53422;DHT22;39319;52.944;5.928;2023-04-25T05:43:02;8.70;92.60
53422;DHT22;39319;52.944;5.928;2023-04-25T05:45:30;8.70;92.80
53422;DHT22;39319;52.944;5.928;2023-04-25T05:47:56;8.70;93.10
53422;DHT22;39319;52.944;5.928;2023-04-25T05:50:21;8.90;92.80
53422;DHT22;39319;52.944;5.928;2023-04-25T05:52:47;8.80;93.00
53422;DHT22;39319;52.944;5.928;2023-04-25T05:55:16;8.80;93.00
53422;DHT22;39319;52.944;5.928;2023-04-25T05:57:44;8.80;93.30
53422;DHT22;39319;52.944;5.928;2023-04-25T06:00:13;8.80;93.20
53422;DHT22;39319;52.944;5.928;2023-04-25T06:02:40;8.90;93.50
53422;DHT22;39319;52.944;5.928;2023-04-25T06:05:06;9.20;93.20
53422;DHT22;39319;52.944;5.928;2023-04-25T06:07:32;9.10;93.10
53422;DHT22;39319;52.944;5.928;2023-04-25T06:09:58;9.20;93.10
53422;DHT22;39319;52.944;5.928;2023-04-25T06:12:23;9.20;92.90
53422;DHT22;39319;52.944;5.928;2023-04-25T06:14:49;9.20;92.60
53422;DHT22;39319;52.944;5.928;2023-04-25T06:17:15;9.30;92.60
53422;DHT22;39319;52.944;5.928;2023-04-25T06:19:41;9.40;92.40
53422;DHT22;39319;52.944;5.928;2023-04-25T06:22:07;9.20;92.30
53422;DHT22;39319;52.944;5.928;2023-04-25T06:24:33;9.10;92.40
53422;DHT22;39319;52.944;5.928;2023-04-25T06:26:58;9.20;92.70
53422;DHT22;39319;52.944;5.928;2023-04-25T06:29:25;9.30;92.40
53422;DHT22;39319;52.944;5.928;2023-04-25T06:31:51;9.30;92.40
53422;DHT22;39319;52.944;5.928;2023-04-25T06:34:17;9.40;92.00
53422;DHT22;39319;52.944;5.928;2023-04-25T06:36:42;9.60;92.30
53422;DHT22;39319;52.944;5.928;2023-04-25T06:39:09;9.40;92.30
53422;DHT22;39319;52.944;5.928;2023-04-25T06:41:36;9.40;92.10
53422;DHT22;39319;52.944;5.928;2023-04-25T06:44:01;9.80;92.20
53422;DHT22;39319;52.944;5.928;2023-04-25T06:46:27;9.60;92.10
53422;DHT22;39319;52.944;5.928;2023-04-25T06:48:53;9.60;91.60
53422;DHT22;39319;52.944;5.928;2023-04-25T06:51:18;9.50;91.70
53422;DHT22;39319;52.944;5.928;2023-04-25T06:53:44;9.60;91.80
53422;DHT22;39319;52.944;5.928;2023-04-25T06:56:10;9.60;91.60
53422;DHT22;39319;52.944;5.928;2023-04-25T06:58:36;9.40;91.40
53422;DHT22;39319;52.944;5.928;2023-04-25T07:01:01;9.50;91.50
53422;DHT22;39319;52.944;5.928;2023-04-25T07:03:27;9.40;91.70
53422;DHT22;39319;52.944;5.928;2023-04-25T07:05:53;9.70;91.50
53422;DHT22;39319;52.944;5.928;2023-04-25T07:08:18;9.60;91.70
53422;DHT22;39319;52.944;5.928;2023-04-25T07:10:45;9.40;91.40
53422;DHT22;39319;52.944;5.928;2023-04-25T07:13:11;9.60;91.20
53422;DHT22;39319;52.944;5.928;2023-04-25T07:15:37;9.60;91.30
53422;DHT22;39319;52.944;5.928;2023-04-25T07:18:03;9.70;91.20
53422;DHT22;39319;52.944;5.928;2023-04-25T07:20:29;9.60;91.30
53422;DHT22;39319;52.944;5.928;2023-04-25T07:22:56;9.90;91.30
53422;DHT22;39319;52.944;5.928;2023-04-25T07:25:22;9.90;91.20
53422;DHT22;39319;52.944;5.928;2023-04-25T07:27:48;9.80;91.00
53422;DHT22;39319;52.944;5.928;2023-04-25T07:30:14;9.70;91.20
53422;DHT22;39319;52.944;5.928;2023-04-25T07:32:39;9.40;92.10
53422;DHT22;39319;52.944;5.928;2023-04-25T07:35:06;9.20;92.50
53422;DHT22;39319;52.944;5.928;2023-04-25T07:37:33;9.00;92.70
53422;DHT22;39319;52.944;5.928;2023-04-25T07:39:59;8.90;92.90
53422;DHT22;39319;52.944;5.928;2023-04-25T07:42:25;8.90;92.60
53422;DHT22;39319;52.944;5.928;2023-04-25T07:44:50;9.10;92.70
53422;DHT22;39319;52.944;5.928;2023-04-25T07:47:17;8.90;92.30
53422;DHT22;39319;52.944;5.928;2023-04-25T07:49:44;9.20;91.40
53422;DHT22;39319;52.944;5.928;2023-04-25T07:52:10;9.20;91.70
53422;DHT22;39319;52.944;5.928;2023-04-25T07:54:36;9.20;91.70
53422;DHT22;39319;52.944;5.928;2023-04-25T07:57:02;9.30;91.40
53422;DHT22;39319;52.944;5.928;2023-04-25T07:59:28;9.40;91.30
53422;DHT22;39319;52.944;5.928;2023-04-25T08:01:53;9.40;91.30
53422;DHT22;39319;52.944;5.928;2023-04-25T08:04:19;9.40;91.50
53422;DHT22;39319;52.944;5.928;2023-04-25T08:06:45;9.50;91.30
53422;DHT22;39319;52.944;5.928;2023-04-25T08:09:11;9.60;91.40
53422;DHT22;39319;52.944;5.928;2023-04-25T08:11:37;9.80;91.70
53422;DHT22;39319;52.944;5.928;2023-04-25T08:14:03;9.90;91.30
53422;DHT22;39319;52.944;5.928;2023-04-25T08:16:28;10.00;91.40
53422;DHT22;39319;52.944;5.928;2023-04-25T08:18:54;10.30;91.60
53422;DHT22;39319;52.944;5.928;2023-04-25T08:21:20;10.30;91.10
53422;DHT22;39319;52.944;5.928;2023-04-25T08:23:46;10.40;90.80
53422;DHT22;39319;52.944;5.928;2023-04-25T08:26:12;10.40;90.50
53422;DHT22;39319;52.944;5.928;2023-04-25T08:28:37;10.40;90.50
53422;DHT22;39319;52.944;5.928;2023-04-25T08:31:03;10.60;90.00
53422;DHT22;39319;52.944;5.928;2023-04-25T08:33:29;10.20;89.10
53422;DHT22;39319;52.944;5.928;2023-04-25T08:35:55;10.30;88.60
53422;DHT22;39319;52.944;5.928;2023-04-25T08:38:22;10.40;88.00
53422;DHT22;39319;52.944;5.928;2023-04-25T08:40:50;10.40;88.70
53422;DHT22;39319;52.944;5.928;2023-04-25T08:43:19;10.40;89.60
53422;DHT22;39319;52.944;5.928;2023-04-25T08:45:46;10.60;88.60
53422;DHT22;39319;52.944;5.928;2023-04-25T08:48:14;10.70;88.60
53422;DHT22;39319;52.944;5.928;2023-04-25T08:50:51;10.60;89.30
53422;DHT22;39319;52.944;5.928;2023-04-25T08:53:22;10.90;87.30
53422;DHT22;39319;52.944;5.928;2023-04-25T08:55:50;10.90;88.20
53422;DHT22;39319;52.944;5.928;2023-04-25T08:58:18;11.20;87.70
53422;DHT22;39319;52.944;5.928;2023-04-25T09:00:46;11.20;86.90
53422;DHT22;39319;52.944;5.928;2023-04-25T09:03:12;11.50;87.70
53422;DHT22;39319;52.944;5.928;2023-04-25T09:05:39;11.50;88.10
53422;DHT22;39319;52.944;5.928;2023-04-25T09:08:05;11.70;87.00
53422;DHT22;39319;52.944;5.928;2023-04-25T09:10:32;11.70;87.10
53422;DHT22;39319;52.944;5.928;2023-04-25T09:15:49;11.90;86.30
53422;DHT22;39319;52.944;5.928;2023-04-25T09:18:30;12.00;85.70
53422;DHT22;39319;52.944;5.928;2023-04-25T09:21:07;11.80;85.00
53422;DHT22;39319;52.944;5.928;2023-04-25T09:23:49;12.10;83.90
53422;DHT22;39319;52.944;5.928;2023-04-25T09:26:18;12.30;84.70
53422;DHT22;39319;52.944;5.928;2023-04-25T09:28:45;12.00;83.80
53422;DHT22;39319;52.944;5.928;2023-04-25T09:31:11;12.20;83.20
53422;DHT22;39319;52.944;5.928;2023-04-25T09:33:37;11.90;83.00
53422;DHT22;39319;52.944;5.928;2023-04-25T09:36:08;12.10;84.40
53422;DHT22;39319;52.944;5.928;2023-04-25T09:38:42;11.90;84.90
53422;DHT22;39319;52.944;5.928;2023-04-25T09:41:08;11.60;86.70
53422;DHT22;39319;52.944;5.928;2023-04-25T09:43:35;11.30;88.50
53422;DHT22;39319;52.944;5.928;2023-04-25T09:46:01;10.90;88.20
53422;DHT22;39319;52.944;5.928;2023-04-25T09:48:28;10.80;89.20
53422;DHT22;39319;52.944;5.928;2023-04-25T09:51:03;10.90;89.50
53422;DHT22;39319;52.944;5.928;2023-04-25T09:53:29;10.60;90.00
53422;DHT22;39319;52.944;5.928;2023-04-25T09:55:56;10.70;90.50
53422;DHT22;39319;52.944;5.928;2023-04-25T09:58:24;10.70;91.00
53422;DHT22;39319;52.944;5.928;2023-04-25T10:00:51;10.70;91.20
53422;DHT22;39319;52.944;5.928;2023-04-25T10:03:17;10.50;91.60
53422;DHT22;39319;52.944;5.928;2023-04-25T10:05:47;10.50;91.50
53422;DHT22;39319;52.944;5.928;2023-04-25T10:08:18;10.70;91.10
53422;DHT22;39319;52.944;5.928;2023-04-25T10:10:46;10.60;91.90
53422;DHT22;39319;52.944;5.928;2023-04-25T10:13:12;10.60;92.00
53422;DHT22;39319;52.944;5.928;2023-04-25T10:15:40;10.70;91.30
53422;DHT22;39319;52.944;5.928;2023-04-25T10:18:06;11.00;91.30
53422;DHT22;39319;52.944;5.928;2023-04-25T10:20:32;11.30;92.30
53422;DHT22;39319;52.944;5.928;2023-04-25T10:23:11;11.40;91.70
53422;DHT22;39319;52.944;5.928;2023-04-25T10:25:39;11.90;90.80
53422;DHT22;39319;52.944;5.928;2023-04-25T10:28:05;12.20;90.80
53422;DHT22;39319;52.944;5.928;2023-04-25T10:30:31;12.50;89.90
53422;DHT22;39319;52.944;5.928;2023-04-25T10:32:58;13.00;89.40
53422;DHT22;39319;52.944;5.928;2023-04-25T10:35:29;13.20;87.60
53422;DHT22;39319;52.944;5.928;2023-04-25T10:40:25;13.80;86.80
53422;DHT22;39319;52.944;5.928;2023-04-25T10:42:54;14.00;84.90
53422;DHT22;39319;52.944;5.928;2023-04-25T10:45:21;14.10;82.30
53422;DHT22;39319;52.944;5.928;2023-04-25T10:47:47;14.20;82.70
53422;DHT22;39319;52.944;5.928;2023-04-25T10:50:16;14.10;81.90
53422;DHT22;39319;52.944;5.928;2023-04-25T10:52:42;13.90;81.40
53422;DHT22;39319;52.944;5.928;2023-04-25T10:55:08;14.00;80.40
53422;DHT22;39319;52.944;5.928;2023-04-25T10:57:44;14.10;80.60
53422;DHT22;39319;52.944;5.928;2023-04-25T11:02:58;14.70;78.80
53422;DHT22;39319;52.944;5.928;2023-04-25T11:05:35;14.70;75.80
53422;DHT22;39319;52.944;5.928;2023-04-25T11:08:02;14.80;77.50
53422;DHT22;39319;52.944;5.928;2023-04-25T11:10:32;14.80;78.00
53422;DHT22;39319;52.944;5.928;2023-04-25T11:13:00;15.00;75.00
53422;DHT22;39319;52.944;5.928;2023-04-25T11:15:26;14.90;75.30
53422;DHT22;39319;52.944;5.928;2023-04-25T11:17:53;15.20;75.90
53422;DHT22;39319;52.944;5.928;2023-04-25T11:20:20;15.10;76.20
53422;DHT22;39319;52.944;5.928;2023-04-25T11:22:47;15.00;75.20
53422;DHT22;39319;52.944;5.928;2023-04-25T11:25:14;14.70;76.10
53422;DHT22;39319;52.944;5.928;2023-04-25T11:27:54;14.70;76.40
53422;DHT22;39319;52.944;5.928;2023-04-25T11:30:21;14.70;79.90
53422;DHT22;39319;52.944;5.928;2023-04-25T11:32:47;14.60;80.30
53422;DHT22;39319;52.944;5.928;2023-04-25T11:35:13;14.70;80.70
53422;DHT22;39319;52.944;5.928;2023-04-25T11:37:41;14.60;80.00
53422;DHT22;39319;52.944;5.928;2023-04-25T11:40:08;14.40;79.00
53422;DHT22;39319;52.944;5.928;2023-04-25T11:42:42;14.50;78.90
53422;DHT22;39319;52.944;5.928;2023-04-25T11:45:08;14.30;78.20
53422;DHT22;39319;52.944;5.928;2023-04-25T11:47:35;14.20;78.60
53422;DHT22;39319;52.944;5.928;2023-04-25T11:50:02;13.90;79.10
53422;DHT22;39319;52.944;5.928;2023-04-25T11:52:47;13.40;80.80
53422;DHT22;39319;52.944;5.928;2023-04-25T11:55:18;13.10;82.00
53422;DHT22;39319;52.944;5.928;2023-04-25T11:57:46;13.00;82.40
53422;DHT22;39319;52.944;5.928;2023-04-25T12:00:15;13.10;83.50
53422;DHT22;39319;52.944;5.928;2023-04-25T12:02:52;13.10;83.40
53422;DHT22;39319;52.944;5.928;2023-04-25T12:05:18;13.50;86.00
53422;DHT22;39319;52.944;5.928;2023-04-25T12:07:45;14.10;84.20
53422;DHT22;39319;52.944;5.928;2023-04-25T12:10:13;14.40;81.80
53422;DHT22;39319;52.944;5.928;2023-04-25T12:12:46;14.80;82.10
53422;DHT22;39319;52.944;5.928;2023-04-25T12:17:49;15.30;78.70
53422;DHT22;39319;52.944;5.928;2023-04-25T12:20:20;15.60;78.10
53422;DHT22;39319;52.944;5.928;2023-04-25T12:22:49;15.30;76.30
53422;DHT22;39319;52.944;5.928;2023-04-25T12:25:35;14.90;77.20
53422;DHT22;39319;52.944;5.928;2023-04-25T12:31:03;14.40;77.40
53422;DHT22;39319;52.944;5.928;2023-04-25T12:33:31;14.50;76.70
53422;DHT22;39319;52.944;5.928;2023-04-25T12:36:00;14.80;76.90
53422;DHT22;39319;52.944;5.928;2023-04-25T12:38:30;15.20;76.30
53422;DHT22;39319;52.944;5.928;2023-04-25T12:40:58;15.50;74.50
53422;DHT22;39319;52.944;5.928;2023-04-25T12:43:23;15.60;74.60
53422;DHT22;39319;52.944;5.928;2023-04-25T12:45:53;15.80;73.50
53422;DHT22;39319;52.944;5.928;2023-04-25T12:48:19;16.00;73.40
53422;DHT22;39319;52.944;5.928;2023-04-25T12:50:48;16.20;72.90
53422;DHT22;39319;52.944;5.928;2023-04-25T12:53:21;16.10;73.90
53422;DHT22;39319;52.944;5.928;2023-04-25T12:55:48;16.10;71.00
53422;DHT22;39319;52.944;5.928;2023-04-25T12:58:15;15.80;71.30
53422;DHT22;39319;52.944;5.928;2023-04-25T13:00:41;15.30;72.30
53422;DHT22;39319;52.944;5.928;2023-04-25T13:03:07;14.80;72.30
53422;DHT22;39319;52.944;5.928;2023-04-25T13:05:33;14.40;73.40
53422;DHT22;39319;52.944;5.928;2023-04-25T13:07:59;14.10;75.40
53422;DHT22;39319;52.944;5.928;2023-04-25T13:10:25;14.20;77.60
53422;DHT22;39319;52.944;5.928;2023-04-25T13:12:51;14.20;76.40
53422;DHT22;39319;52.944;5.928;2023-04-25T13:15:17;14.50;77.90
53422;DHT22;39319;52.944;5.928;2023-04-25T13:17:42;14.80;75.30
53422;DHT22;39319;52.944;5.928;2023-04-25T13:20:09;15.10;76.70
53422;DHT22;39319;52.944;5.928;2023-04-25T13:22:36;15.30;74.00
53422;DHT22;39319;52.944;5.928;2023-04-25T13:25:04;15.40;72.10
53422;DHT22;39319;52.944;5.928;2023-04-25T13:27:30;15.20;75.00
53422;DHT22;39319;52.944;5.928;2023-04-25T13:29:58;15.10;77.90
53422;DHT22;39319;52.944;5.928;2023-04-25T13:32:24;14.50;80.70
53422;DHT22;39319;52.944;5.928;2023-04-25T13:34:51;14.00;81.90
53422;DHT22;39319;52.944;5.928;2023-04-25T13:37:17;13.60;81.00
53422;DHT22;39319;52.944;5.928;2023-04-25T13:39:42;13.30;82.80
53422;DHT22;39319;52.944;5.928;2023-04-25T13:42:08;13.00;82.20
53422;DHT22;39319;52.944;5.928;2023-04-25T13:44:36;13.00;83.30
53422;DHT22;39319;52.944;5.928;2023-04-25T13:47:02;12.90;80.30
53422;DHT22;39319;52.944;5.928;2023-04-25T13:49:28;12.90;81.80
53422;DHT22;39319;52.944;5.928;2023-04-25T13:51:53;13.00;84.60
53422;DHT22;39319;52.944;5.928;2023-04-25T13:54:19;13.20;84.20
53422;DHT22;39319;52.944;5.928;2023-04-25T13:56:45;13.20;83.00
53422;DHT22;39319;52.944;5.928;2023-04-25T13:59:11;13.50;85.00
53422;DHT22;39319;52.944;5.928;2023-04-25T14:01:36;13.70;83.60
53422;DHT22;39319;52.944;5.928;2023-04-25T14:04:03;13.70;82.20
53422;DHT22;39319;52.944;5.928;2023-04-25T14:06:31;13.70;82.30
53422;DHT22;39319;52.944;5.928;2023-04-25T14:08:58;13.60;82.40
53422;DHT22;39319;52.944;5.928;2023-04-25T14:11:26;13.60;80.60
53422;DHT22;39319;52.944;5.928;2023-04-25T14:13:51;13.50;80.60
53422;DHT22;39319;52.944;5.928;2023-04-25T14:16:17;13.50;81.90
53422;DHT22;39319;52.944;5.928;2023-04-25T14:18:43;13.70;84.20
53422;DHT22;39319;52.944;5.928;2023-04-25T14:21:09;13.90;78.90
53422;DHT22;39319;52.944;5.928;2023-04-25T14:23:35;14.10;79.00
53422;DHT22;39319;52.944;5.928;2023-04-25T14:26:01;14.30;75.90
53422;DHT22;39319;52.944;5.928;2023-04-25T14:28:27;14.40;75.00
53422;DHT22;39319;52.944;5.928;2023-04-25T14:30:53;14.60;75.10
53422;DHT22;39319;52.944;5.928;2023-04-25T14:33:18;14.70;74.90
53422;DHT22;39319;52.944;5.928;2023-04-25T14:35:44;14.90;76.30
53422;DHT22;39319;52.944;5.928;2023-04-25T14:38:10;14.90;75.50
53422;DHT22;39319;52.944;5.928;2023-04-25T14:40:35;15.00;74.70
53422;DHT22;39319;52.944;5.928;2023-04-25T14:43:02;15.10;75.90
53422;DHT22;39319;52.944;5.928;2023-04-25T14:45:28;15.00;76.50
53422;DHT22;39319;52.944;5.928;2023-04-25T14:47:54;14.90;76.10
53422;DHT22;39319;52.944;5.928;2023-04-25T14:50:20;14.90;74.80
53422;DHT22;39319;52.944;5.928;2023-04-25T14:52:46;14.80;73.50
53422;DHT22;39319;52.944;5.928;2023-04-25T14:55:11;14.70;73.70
53422;DHT22;39319;52.944;5.928;2023-04-25T14:57:37;14.70;73.80
53422;DHT22;39319;52.944;5.928;2023-04-25T15:00:05;14.50;73.60
53422;DHT22;39319;52.944;5.928;2023-04-25T15:02:35;14.40;73.80
53422;DHT22;39319;52.944;5.928;2023-04-25T15:05:01;14.20;73.30
53422;DHT22;39319;52.944;5.928;2023-04-25T15:07:26;14.10;74.20
53422;DHT22;39319;52.944;5.928;2023-04-25T15:09:52;14.20;75.20
53422;DHT22;39319;52.944;5.928;2023-04-25T15:12:18;14.20;75.40
53422;DHT22;39319;52.944;5.928;2023-04-25T15:14:44;13.80;76.50
53422;DHT22;39319;52.944;5.928;2023-04-25T15:17:10;13.60;79.90
53422;DHT22;39319;52.944;5.928;2023-04-25T15:19:38;13.50;81.20
53422;DHT22;39319;52.944;5.928;2023-04-25T15:22:05;13.50;82.50
53422;DHT22;39319;52.944;5.928;2023-04-25T15:24:32;13.70;82.10
53422;DHT22;39319;52.944;5.928;2023-04-25T15:26:58;13.80;82.00
53422;DHT22;39319;52.944;5.928;2023-04-25T15:29:24;13.90;78.80
53422;DHT22;39319;52.944;5.928;2023-04-25T15:31:51;13.70;79.30
53422;DHT22;39319;52.944;5.928;2023-04-25T15:34:17;13.90;79.00
53422;DHT22;39319;52.944;5.928;2023-04-25T15:36:43;13.90;77.70
53422;DHT22;39319;52.944;5.928;2023-04-25T15:39:11;13.90;76.70
53422;DHT22;39319;52.944;5.928;2023-04-25T15:41:36;14.00;76.90
53422;DHT22;39319;52.944;5.928;2023-04-25T15:44:02;14.10;76.30
53422;DHT22;39319;52.944;5.928;2023-04-25T15:46:28;14.20;75.50
53422;DHT22;39319;52.944;5.928;2023-04-25T15:48:56;14.10;76.10
53422;DHT22;39319;52.944;5.928;2023-04-25T15:51:22;14.10;76.30